LYNI/INI METAR and TAF weather

Enter ICAO airport designator
Station Type Date Time Source
LYNI METAR 2019/02/21 16:30 UTC NOAA

LYNI 211630Z 31007KT CAVOK 09/M02 Q1025 NOSIG


Station Type Date Time Source
LYNI Decoded METAR 2019/02/21 16:30 UTC NOAA

Nis, Serbia and Montenegro (LYNI) 43-20N 021-54E 202M
Feb 21, 2019 - 11:30 AM EST / 2019.02.21 1630 UTC
Wind: from the NW (310 degrees) at 8 MPH (7 KT):0
Visibility: greater than 7 mile(s):0
Temperature: 48 F (9 C)
Dew Point: 28 F (-2 C)
Relative Humidity: 45%
Pressure (altimeter): 30.27 in. Hg (1025 hPa)
ob: LYNI 211630Z 31007KT CAVOK 09/M02 Q1025 NOSIG
cycle: 16

Station Type Date Time Source
LYNI TAF 2019/02/21 12:21 UTC NOAA

TAF LYNI 211100Z 2112/2212 33012KT CAVOK TX12/2113Z TN02/2206Z
BECMG 2117/2119 14005KT
BECMG 2209/2211 33015KT 4000 RA


Example: see airport list